sensor_id;sensor_type;location;lat;lon;timestamp;P1;durP1;ratioP1;P2;durP2;ratioP2
13951;SDS011;39535;52.192;9.886;2024-03-23T00:53:47;9.53;;;4.70;;
13951;SDS011;39535;52.192;9.886;2024-03-23T00:56:13;9.27;;;4.70;;
13951;SDS011;39535;52.192;9.886;2024-03-23T00:58:39;9.20;;;4.43;;
13951;SDS011;39535;52.192;9.886;2024-03-23T01:01:05;6.53;;;4.07;;
13951;SDS011;39535;52.192;9.886;2024-03-23T01:03:30;8.33;;;4.20;;
13951;SDS011;39535;52.192;9.886;2024-03-23T01:05:58;6.47;;;4.30;;
13951;SDS011;39535;52.192;9.886;2024-03-23T01:08:24;10.70;;;4.17;;
13951;SDS011;39535;52.192;9.886;2024-03-23T01:10:55;6.03;;;3.77;;
13951;SDS011;39535;52.192;9.886;2024-03-23T01:13:21;8.10;;;4.40;;
13951;SDS011;39535;52.192;9.886;2024-03-23T01:15:48;6.80;;;3.90;;
13951;SDS011;39535;52.192;9.886;2024-03-23T01:18:13;6.33;;;4.13;;
13951;SDS011;39535;52.192;9.886;2024-03-23T01:20:40;5.57;;;3.70;;
13951;SDS011;39535;52.192;9.886;2024-03-23T01:23:05;9.27;;;4.30;;
13951;SDS011;39535;52.192;9.886;2024-03-23T01:25:31;6.87;;;4.23;;
13951;SDS011;39535;52.192;9.886;2024-03-23T01:27:58;4.63;;;4.03;;
13951;SDS011;39535;52.192;9.886;2024-03-23T01:30:24;5.70;;;4.10;;
13951;SDS011;39535;52.192;9.886;2024-03-23T01:32:50;8.80;;;4.00;;
13951;SDS011;39535;52.192;9.886;2024-03-23T01:35:16;7.37;;;3.23;;
13951;SDS011;39535;52.192;9.886;2024-03-23T01:37:41;10.07;;;3.70;;
13951;SDS011;39535;52.192;9.886;2024-03-23T01:40:08;8.33;;;3.50;;
13951;SDS011;39535;52.192;9.886;2024-03-23T01:42:34;5.30;;;3.70;;
13951;SDS011;39535;52.192;9.886;2024-03-23T01:45:02;7.00;;;3.47;;
13951;SDS011;39535;52.192;9.886;2024-03-23T01:47:33;5.20;;;3.37;;
13951;SDS011;39535;52.192;9.886;2024-03-23T01:49:59;5.63;;;3.77;;
13951;SDS011;39535;52.192;9.886;2024-03-23T01:52:24;6.23;;;3.67;;
13951;SDS011;39535;52.192;9.886;2024-03-23T01:54:52;7.90;;;3.27;;
13951;SDS011;39535;52.192;9.886;2024-03-23T01:57:18;7.67;;;4.27;;
13951;SDS011;39535;52.192;9.886;2024-03-23T01:59:45;6.63;;;3.57;;
13951;SDS011;39535;52.192;9.886;2024-03-23T02:02:13;5.13;;;3.20;;
13951;SDS011;39535;52.192;9.886;2024-03-23T02:04:39;4.13;;;2.93;;
13951;SDS011;39535;52.192;9.886;2024-03-23T02:07:05;5.60;;;3.00;;
13951;SDS011;39535;52.192;9.886;2024-03-23T02:09:32;6.67;;;3.47;;
13951;SDS011;39535;52.192;9.886;2024-03-23T02:11:58;6.50;;;3.17;;
13951;SDS011;39535;52.192;9.886;2024-03-23T02:14:24;5.97;;;3.63;;
13951;SDS011;39535;52.192;9.886;2024-03-23T02:16:50;6.80;;;3.40;;
13951;SDS011;39535;52.192;9.886;2024-03-23T02:19:17;7.10;;;3.80;;
13951;SDS011;39535;52.192;9.886;2024-03-23T02:21:43;5.17;;;3.80;;
13951;SDS011;39535;52.192;9.886;2024-03-23T02:24:10;5.90;;;3.20;;
13951;SDS011;39535;52.192;9.886;2024-03-23T02:26:36;5.53;;;3.60;;
13951;SDS011;39535;52.192;9.886;2024-03-23T02:29:02;7.10;;;3.67;;
13951;SDS011;39535;52.192;9.886;2024-03-23T02:31:27;6.30;;;3.80;;
13951;SDS011;39535;52.192;9.886;2024-03-23T02:33:54;6.83;;;4.07;;
13951;SDS011;39535;52.192;9.886;2024-03-23T02:36:19;7.10;;;3.57;;
13951;SDS011;39535;52.192;9.886;2024-03-23T02:38:46;5.10;;;3.33;;
13951;SDS011;39535;52.192;9.886;2024-03-23T02:41:13;3.80;;;3.20;;
13951;SDS011;39535;52.192;9.886;2024-03-23T02:43:39;6.60;;;3.70;;
13951;SDS011;39535;52.192;9.886;2024-03-23T02:46:05;6.50;;;3.60;;
13951;SDS011;39535;52.192;9.886;2024-03-23T02:48:31;6.53;;;3.97;;
13951;SDS011;39535;52.192;9.886;2024-03-23T02:50:56;8.93;;;3.80;;
13951;SDS011;39535;52.192;9.886;2024-03-23T02:53:23;9.40;;;4.47;;
13951;SDS011;39535;52.192;9.886;2024-03-23T02:55:48;7.23;;;4.03;;
13951;SDS011;39535;52.192;9.886;2024-03-23T02:58:16;8.07;;;3.80;;
13951;SDS011;39535;52.192;9.886;2024-03-23T03:00:41;6.10;;;3.97;;
13951;SDS011;39535;52.192;9.886;2024-03-23T03:03:07;7.40;;;4.10;;
13951;SDS011;39535;52.192;9.886;2024-03-23T03:05:33;7.33;;;4.10;;
13951;SDS011;39535;52.192;9.886;2024-03-23T03:08:00;6.90;;;4.43;;
13951;SDS011;39535;52.192;9.886;2024-03-23T03:10:25;5.77;;;4.40;;
13951;SDS011;39535;52.192;9.886;2024-03-23T03:12:51;6.87;;;4.40;;
13951;SDS011;39535;52.192;9.886;2024-03-23T03:15:18;5.70;;;4.53;;
13951;SDS011;39535;52.192;9.886;2024-03-23T03:17:44;5.27;;;4.10;;
13951;SDS011;39535;52.192;9.886;2024-03-23T03:20:10;7.03;;;4.13;;
13951;SDS011;39535;52.192;9.886;2024-03-23T03:22:38;6.77;;;4.47;;
13951;SDS011;39535;52.192;9.886;2024-03-23T03:25:04;4.80;;;3.93;;
13951;SDS011;39535;52.192;9.886;2024-03-23T03:27:32;5.40;;;4.50;;
13951;SDS011;39535;52.192;9.886;2024-03-23T03:29:57;8.50;;;5.00;;
13951;SDS011;39535;52.192;9.886;2024-03-23T03:32:27;9.80;;;4.43;;
13951;SDS011;39535;52.192;9.886;2024-03-23T03:34:53;6.97;;;5.03;;
13951;SDS011;39535;52.192;9.886;2024-03-23T03:37:19;8.00;;;4.97;;
13951;SDS011;39535;52.192;9.886;2024-03-23T03:39:45;6.50;;;5.23;;
13951;SDS011;39535;52.192;9.886;2024-03-23T03:42:11;8.00;;;5.07;;
13951;SDS011;39535;52.192;9.886;2024-03-23T03:44:36;7.23;;;6.00;;
13951;SDS011;39535;52.192;9.886;2024-03-23T03:47:04;7.60;;;4.90;;
13951;SDS011;39535;52.192;9.886;2024-03-23T03:49:34;6.50;;;5.00;;
13951;SDS011;39535;52.192;9.886;2024-03-23T03:52:00;10.67;;;5.40;;
13951;SDS011;39535;52.192;9.886;2024-03-23T03:54:26;6.53;;;4.97;;
13951;SDS011;39535;52.192;9.886;2024-03-23T03:56:53;7.70;;;5.03;;
13951;SDS011;39535;52.192;9.886;2024-03-23T03:59:18;8.67;;;4.80;;
13951;SDS011;39535;52.192;9.886;2024-03-23T04:01:47;8.97;;;5.27;;
13951;SDS011;39535;52.192;9.886;2024-03-23T04:04:12;8.10;;;5.43;;
13951;SDS011;39535;52.192;9.886;2024-03-23T04:06:42;12.17;;;5.10;;
13951;SDS011;39535;52.192;9.886;2024-03-23T04:09:08;8.77;;;5.50;;
13951;SDS011;39535;52.192;9.886;2024-03-23T04:11:35;8.43;;;4.77;;
13951;SDS011;39535;52.192;9.886;2024-03-23T04:14:00;8.93;;;4.50;;
13951;SDS011;39535;52.192;9.886;2024-03-23T04:16:27;5.30;;;4.03;;
13951;SDS011;39535;52.192;9.886;2024-03-23T04:18:52;7.87;;;5.50;;
13951;SDS011;39535;52.192;9.886;2024-03-23T04:21:19;10.03;;;5.53;;
13951;SDS011;39535;52.192;9.886;2024-03-23T04:23:45;12.20;;;4.63;;
13951;SDS011;39535;52.192;9.886;2024-03-23T04:26:12;8.07;;;4.67;;
13951;SDS011;39535;52.192;9.886;2024-03-23T04:28:37;6.63;;;4.37;;
13951;SDS011;39535;52.192;9.886;2024-03-23T04:31:04;12.80;;;4.60;;
13951;SDS011;39535;52.192;9.886;2024-03-23T04:33:29;6.43;;;4.10;;
13951;SDS011;39535;52.192;9.886;2024-03-23T04:35:55;9.13;;;4.20;;
13951;SDS011;39535;52.192;9.886;2024-03-23T04:38:21;9.77;;;3.07;;
13951;SDS011;39535;52.192;9.886;2024-03-23T04:40:54;6.67;;;3.10;;
13951;SDS011;39535;52.192;9.886;2024-03-23T04:43:21;7.60;;;3.33;;
13951;SDS011;39535;52.192;9.886;2024-03-23T04:45:47;8.20;;;3.00;;
13951;SDS011;39535;52.192;9.886;2024-03-23T04:48:13;6.47;;;2.37;;
13951;SDS011;39535;52.192;9.886;2024-03-23T04:50:39;5.83;;;2.57;;
13951;SDS011;39535;52.192;9.886;2024-03-23T04:53:06;7.77;;;2.80;;
13951;SDS011;39535;52.192;9.886;2024-03-23T04:55:32;6.53;;;2.83;;
13951;SDS011;39535;52.192;9.886;2024-03-23T04:58:00;7.37;;;3.23;;
13951;SDS011;39535;52.192;9.886;2024-03-23T05:00:25;4.30;;;2.40;;
13951;SDS011;39535;52.192;9.886;2024-03-23T05:02:52;6.47;;;3.73;;
13951;SDS011;39535;52.192;9.886;2024-03-23T05:05:18;8.13;;;2.70;;
13951;SDS011;39535;52.192;9.886;2024-03-23T05:07:44;6.43;;;3.03;;
13951;SDS011;39535;52.192;9.886;2024-03-23T05:10:10;5.33;;;2.87;;
13951;SDS011;39535;52.192;9.886;2024-03-23T05:12:36;4.70;;;2.73;;
13951;SDS011;39535;52.192;9.886;2024-03-23T05:15:03;7.60;;;3.20;;
13951;SDS011;39535;52.192;9.886;2024-03-23T05:17:30;5.87;;;3.17;;
13951;SDS011;39535;52.192;9.886;2024-03-23T05:19:56;11.03;;;3.23;;
13951;SDS011;39535;52.192;9.886;2024-03-23T05:22:22;6.23;;;3.03;;
13951;SDS011;39535;52.192;9.886;2024-03-23T05:24:48;10.60;;;3.70;;
13951;SDS011;39535;52.192;9.886;2024-03-23T05:27:14;11.43;;;3.47;;
13951;SDS011;39535;52.192;9.886;2024-03-23T05:29:40;9.30;;;3.43;;
13951;SDS011;39535;52.192;9.886;2024-03-23T05:32:07;6.73;;;3.20;;
13951;SDS011;39535;52.192;9.886;2024-03-23T05:34:33;9.37;;;3.47;;
13951;SDS011;39535;52.192;9.886;2024-03-23T05:36:59;10.43;;;3.50;;
13951;SDS011;39535;52.192;9.886;2024-03-23T05:39:25;7.33;;;3.10;;
13951;SDS011;39535;52.192;9.886;2024-03-23T05:41:51;6.40;;;3.77;;
13951;SDS011;39535;52.192;9.886;2024-03-23T05:44:16;5.67;;;2.87;;
13951;SDS011;39535;52.192;9.886;2024-03-23T05:46:43;9.10;;;3.10;;
13951;SDS011;39535;52.192;9.886;2024-03-23T05:49:15;8.27;;;3.67;;
13951;SDS011;39535;52.192;9.886;2024-03-23T05:51:41;6.60;;;3.00;;
13951;SDS011;39535;52.192;9.886;2024-03-23T05:54:07;4.03;;;2.30;;
13951;SDS011;39535;52.192;9.886;2024-03-23T05:56:35;6.53;;;2.30;;
13951;SDS011;39535;52.192;9.886;2024-03-23T05:59:01;3.37;;;2.00;;
13951;SDS011;39535;52.192;9.886;2024-03-23T06:01:28;7.33;;;2.70;;
13951;SDS011;39535;52.192;9.886;2024-03-23T06:03:55;7.97;;;2.43;;
13951;SDS011;39535;52.192;9.886;2024-03-23T06:06:23;5.10;;;2.40;;
13951;SDS011;39535;52.192;9.886;2024-03-23T06:08:48;7.00;;;2.27;;
13951;SDS011;39535;52.192;9.886;2024-03-23T06:11:15;6.57;;;1.90;;
13951;SDS011;39535;52.192;9.886;2024-03-23T06:13:40;5.63;;;2.43;;
13951;SDS011;39535;52.192;9.886;2024-03-23T06:16:06;8.37;;;3.20;;
13951;SDS011;39535;52.192;9.886;2024-03-23T06:18:32;11.33;;;3.10;;
13951;SDS011;39535;52.192;9.886;2024-03-23T06:20:58;9.73;;;2.73;;
13951;SDS011;39535;52.192;9.886;2024-03-23T06:23:25;8.97;;;4.17;;
13951;SDS011;39535;52.192;9.886;2024-03-23T06:25:51;5.57;;;3.13;;
13951;SDS011;39535;52.192;9.886;2024-03-23T06:28:17;11.20;;;3.53;;
13951;SDS011;39535;52.192;9.886;2024-03-23T06:30:43;8.63;;;3.33;;
13951;SDS011;39535;52.192;9.886;2024-03-23T06:33:09;6.60;;;2.50;;
13951;SDS011;39535;52.192;9.886;2024-03-23T06:35:35;5.03;;;2.43;;
13951;SDS011;39535;52.192;9.886;2024-03-23T06:38:00;14.30;;;3.87;;
13951;SDS011;39535;52.192;9.886;2024-03-23T06:40:28;10.63;;;2.37;;
13951;SDS011;39535;52.192;9.886;2024-03-23T06:42:53;5.17;;;2.80;;
13951;SDS011;39535;52.192;9.886;2024-03-23T06:45:20;11.07;;;2.37;;
13951;SDS011;39535;52.192;9.886;2024-03-23T06:47:48;7.23;;;2.37;;
13951;SDS011;39535;52.192;9.886;2024-03-23T06:50:14;7.73;;;2.43;;
13951;SDS011;39535;52.192;9.886;2024-03-23T06:52:40;6.87;;;2.40;;
13951;SDS011;39535;52.192;9.886;2024-03-23T06:55:06;10.80;;;3.17;;
13951;SDS011;39535;52.192;9.886;2024-03-23T06:57:34;4.87;;;2.40;;
13951;SDS011;39535;52.192;9.886;2024-03-23T07:00:00;3.93;;;2.43;;
13951;SDS011;39535;52.192;9.886;2024-03-23T07:02:25;7.80;;;2.50;;
13951;SDS011;39535;52.192;9.886;2024-03-23T07:04:52;7.80;;;3.97;;
13951;SDS011;39535;52.192;9.886;2024-03-23T07:07:17;6.30;;;3.50;;
13951;SDS011;39535;52.192;9.886;2024-03-23T07:09:43;10.20;;;2.97;;
13951;SDS011;39535;52.192;9.886;2024-03-23T07:12:09;6.20;;;3.27;;
13951;SDS011;39535;52.192;9.886;2024-03-23T07:14:36;7.73;;;2.50;;
13951;SDS011;39535;52.192;9.886;2024-03-23T07:17:02;7.90;;;2.57;;
13951;SDS011;39535;52.192;9.886;2024-03-23T07:19:28;7.50;;;3.20;;
13951;SDS011;39535;52.192;9.886;2024-03-23T07:21:53;7.30;;;2.77;;
13951;SDS011;39535;52.192;9.886;2024-03-23T07:24:20;7.23;;;2.60;;
13951;SDS011;39535;52.192;9.886;2024-03-23T07:26:45;5.67;;;2.77;;
13951;SDS011;39535;52.192;9.886;2024-03-23T07:29:12;6.20;;;2.60;;
13951;SDS011;39535;52.192;9.886;2024-03-23T07:31:39;6.97;;;3.10;;
13951;SDS011;39535;52.192;9.886;2024-03-23T07:34:06;6.07;;;2.67;;
13951;SDS011;39535;52.192;9.886;2024-03-23T07:36:31;5.53;;;2.30;;
13951;SDS011;39535;52.192;9.886;2024-03-23T07:38:58;9.40;;;2.27;;
13951;SDS011;39535;52.192;9.886;2024-03-23T07:41:23;6.23;;;2.60;;
13951;SDS011;39535;52.192;9.886;2024-03-23T07:43:50;6.73;;;2.97;;
13951;SDS011;39535;52.192;9.886;2024-03-23T07:46:15;9.03;;;2.97;;
13951;SDS011;39535;52.192;9.886;2024-03-23T07:48:45;4.30;;;2.57;;
13951;SDS011;39535;52.192;9.886;2024-03-23T07:51:11;4.87;;;2.73;;
13951;SDS011;39535;52.192;9.886;2024-03-23T07:53:44;6.17;;;2.23;;
13951;SDS011;39535;52.192;9.886;2024-03-23T07:56:10;5.07;;;3.00;;
13951;SDS011;39535;52.192;9.886;2024-03-23T07:58:36;6.13;;;3.90;;
13951;SDS011;39535;52.192;9.886;2024-03-23T08:01:03;8.60;;;2.70;;
13951;SDS011;39535;52.192;9.886;2024-03-23T08:03:30;5.43;;;2.77;;
13951;SDS011;39535;52.192;9.886;2024-03-23T08:05:57;6.53;;;3.40;;
13951;SDS011;39535;52.192;9.886;2024-03-23T08:08:23;6.87;;;3.60;;
13951;SDS011;39535;52.192;9.886;2024-03-23T08:10:49;7.10;;;4.37;;
13951;SDS011;39535;52.192;9.886;2024-03-23T08:13:15;5.80;;;4.00;;
13951;SDS011;39535;52.192;9.886;2024-03-23T08:15:41;11.37;;;7.00;;
13951;SDS011;39535;52.192;9.886;2024-03-23T08:18:07;15.70;;;7.23;;
13951;SDS011;39535;52.192;9.886;2024-03-23T08:20:33;15.17;;;6.60;;
13951;SDS011;39535;52.192;9.886;2024-03-23T08:23:00;11.60;;;6.50;;
13951;SDS011;39535;52.192;9.886;2024-03-23T08:25:26;9.27;;;6.10;;
13951;SDS011;39535;52.192;9.886;2024-03-23T08:27:52;9.53;;;5.67;;
13951;SDS011;39535;52.192;9.886;2024-03-23T08:30:18;10.90;;;5.63;;
13951;SDS011;39535;52.192;9.886;2024-03-23T08:32:44;11.93;;;6.00;;
13951;SDS011;39535;52.192;9.886;2024-03-23T08:35:11;8.30;;;5.90;;
13951;SDS011;39535;52.192;9.886;2024-03-23T08:37:37;11.97;;;6.37;;
13951;SDS011;39535;52.192;9.886;2024-03-23T08:40:04;11.20;;;6.83;;
13951;SDS011;39535;52.192;9.886;2024-03-23T08:42:33;12.97;;;8.03;;
13951;SDS011;39535;52.192;9.886;2024-03-23T08:44:58;16.70;;;8.77;;
13951;SDS011;39535;52.192;9.886;2024-03-23T08:47:25;18.00;;;9.10;;
13951;SDS011;39535;52.192;9.886;2024-03-23T08:49:50;21.77;;;10.23;;
13951;SDS011;39535;52.192;9.886;2024-03-23T08:52:16;18.87;;;8.30;;
13951;SDS011;39535;52.192;9.886;2024-03-23T08:54:42;10.93;;;8.63;;
13951;SDS011;39535;52.192;9.886;2024-03-23T08:57:10;12.70;;;8.00;;
13951;SDS011;39535;52.192;9.886;2024-03-23T08:59:35;21.57;;;8.37;;
13951;SDS011;39535;52.192;9.886;2024-03-23T09:02:03;20.10;;;8.33;;
13951;SDS011;39535;52.192;9.886;2024-03-23T09:04:29;17.63;;;7.53;;
13951;SDS011;39535;52.192;9.886;2024-03-23T09:06:56;13.37;;;7.27;;
13951;SDS011;39535;52.192;9.886;2024-03-23T09:09:22;16.73;;;8.00;;
13951;SDS011;39535;52.192;9.886;2024-03-23T09:11:49;16.00;;;7.47;;
13951;SDS011;39535;52.192;9.886;2024-03-23T09:14:15;14.50;;;6.73;;
13951;SDS011;39535;52.192;9.886;2024-03-23T09:16:42;9.23;;;5.93;;
13951;SDS011;39535;52.192;9.886;2024-03-23T09:19:07;21.00;;;7.90;;
13951;SDS011;39535;52.192;9.886;2024-03-23T09:21:35;11.13;;;8.87;;
13951;SDS011;39535;52.192;9.886;2024-03-23T09:24:00;10.97;;;6.17;;
13951;SDS011;39535;52.192;9.886;2024-03-23T09:26:27;18.37;;;5.80;;
13951;SDS011;39535;52.192;9.886;2024-03-23T09:28:54;9.07;;;4.97;;
13951;SDS011;39535;52.192;9.886;2024-03-23T09:31:22;12.13;;;6.03;;
13951;SDS011;39535;52.192;9.886;2024-03-23T09:33:47;10.27;;;6.90;;
13951;SDS011;39535;52.192;9.886;2024-03-23T09:36:14;11.90;;;7.13;;
13951;SDS011;39535;52.192;9.886;2024-03-23T09:38:40;15.23;;;6.23;;
13951;SDS011;39535;52.192;9.886;2024-03-23T09:41:07;15.73;;;7.67;;
13951;SDS011;39535;52.192;9.886;2024-03-23T09:43:33;10.87;;;6.93;;
13951;SDS011;39535;52.192;9.886;2024-03-23T09:46:00;11.27;;;6.20;;
13951;SDS011;39535;52.192;9.886;2024-03-23T09:48:28;8.07;;;5.83;;
13951;SDS011;39535;52.192;9.886;2024-03-23T09:50:55;15.40;;;9.03;;
13951;SDS011;39535;52.192;9.886;2024-03-23T09:53:21;18.10;;;8.77;;
13951;SDS011;39535;52.192;9.886;2024-03-23T09:55:47;10.33;;;5.70;;
13951;SDS011;39535;52.192;9.886;2024-03-23T09:58:14;14.87;;;5.73;;
13951;SDS011;39535;52.192;9.886;2024-03-23T10:00:41;9.63;;;5.60;;
13951;SDS011;39535;52.192;9.886;2024-03-23T10:03:06;12.93;;;7.27;;
13951;SDS011;39535;52.192;9.886;2024-03-23T10:05:35;9.60;;;6.40;;
13951;SDS011;39535;52.192;9.886;2024-03-23T10:08:00;14.20;;;6.03;;
13951;SDS011;39535;52.192;9.886;2024-03-23T10:10:44;11.70;;;6.50;;
13951;SDS011;39535;52.192;9.886;2024-03-23T10:13:10;11.20;;;5.87;;
13951;SDS011;39535;52.192;9.886;2024-03-23T10:15:38;8.00;;;4.60;;
13951;SDS011;39535;52.192;9.886;2024-03-23T10:18:04;6.93;;;4.57;;
13951;SDS011;39535;52.192;9.886;2024-03-23T10:20:45;8.00;;;5.00;;
13951;SDS011;39535;52.192;9.886;2024-03-23T10:23:15;13.77;;;5.17;;
13951;SDS011;39535;52.192;9.886;2024-03-23T10:25:42;10.77;;;5.73;;
13951;SDS011;39535;52.192;9.886;2024-03-23T10:28:08;12.70;;;7.23;;
13951;SDS011;39535;52.192;9.886;2024-03-23T10:30:36;9.47;;;4.33;;
13951;SDS011;39535;52.192;9.886;2024-03-23T10:33:08;9.07;;;4.27;;
13951;SDS011;39535;52.192;9.886;2024-03-23T10:35:36;7.23;;;4.50;;
13951;SDS011;39535;52.192;9.886;2024-03-23T10:38:04;5.47;;;3.83;;
13951;SDS011;39535;52.192;9.886;2024-03-23T10:40:31;8.83;;;4.17;;
13951;SDS011;39535;52.192;9.886;2024-03-23T10:42:59;5.37;;;4.20;;
13951;SDS011;39535;52.192;9.886;2024-03-23T10:45:26;7.67;;;4.00;;
13951;SDS011;39535;52.192;9.886;2024-03-23T10:47:52;10.87;;;4.47;;
13951;SDS011;39535;52.192;9.886;2024-03-23T10:50:19;7.17;;;3.90;;
13951;SDS011;39535;52.192;9.886;2024-03-23T10:52:45;8.50;;;4.53;;
13951;SDS011;39535;52.192;9.886;2024-03-23T10:55:14;6.40;;;3.77;;
13951;SDS011;39535;52.192;9.886;2024-03-23T10:57:44;3.33;;;1.70;;
13951;SDS011;39535;52.192;9.886;2024-03-23T11:00:14;2.23;;;1.30;;
13951;SDS011;39535;52.192;9.886;2024-03-23T11:02:41;1.10;;;1.00;;
13951;SDS011;39535;52.192;9.886;2024-03-23T11:07:54;2.23;;;1.40;;
13951;SDS011;39535;52.192;9.886;2024-03-23T11:10:28;2.07;;;1.43;;
13951;SDS011;39535;52.192;9.886;2024-03-23T11:12:55;3.03;;;1.90;;
13951;SDS011;39535;52.192;9.886;2024-03-23T11:15:21;4.23;;;2.30;;
13951;SDS011;39535;52.192;9.886;2024-03-23T11:18:02;4.00;;;2.10;;
13951;SDS011;39535;52.192;9.886;2024-03-23T11:20:33;3.60;;;2.23;;
13951;SDS011;39535;52.192;9.886;2024-03-23T11:22:59;6.23;;;3.43;;
13951;SDS011;39535;52.192;9.886;2024-03-23T11:25:27;6.03;;;3.30;;
13951;SDS011;39535;52.192;9.886;2024-03-23T11:27:54;4.63;;;3.20;;
13951;SDS011;39535;52.192;9.886;2024-03-23T11:30:24;6.30;;;4.70;;
13951;SDS011;39535;52.192;9.886;2024-03-23T11:32:50;6.80;;;4.07;;
13951;SDS011;39535;52.192;9.886;2024-03-23T11:35:25;2.57;;;1.00;;
13951;SDS011;39535;52.192;9.886;2024-03-23T11:38:01;2.10;;;1.33;;
13951;SDS011;39535;52.192;9.886;2024-03-23T11:40:30;2.77;;;1.83;;
13951;SDS011;39535;52.192;9.886;2024-03-23T11:42:56;4.67;;;3.27;;
13951;SDS011;39535;52.192;9.886;2024-03-23T11:45:22;3.93;;;2.23;;
13951;SDS011;39535;52.192;9.886;2024-03-23T11:47:48;3.97;;;2.43;;
13951;SDS011;39535;52.192;9.886;2024-03-23T11:50:19;4.07;;;2.47;;
13951;SDS011;39535;52.192;9.886;2024-03-23T11:52:45;4.17;;;2.90;;
13951;SDS011;39535;52.192;9.886;2024-03-23T11:55:11;3.40;;;3.03;;
13951;SDS011;39535;52.192;9.886;2024-03-23T11:57:38;7.30;;;2.90;;
13951;SDS011;39535;52.192;9.886;2024-03-23T12:00:19;5.33;;;2.30;;
13951;SDS011;39535;52.192;9.886;2024-03-23T12:02:46;2.60;;;2.27;;
13951;SDS011;39535;52.192;9.886;2024-03-23T12:05:15;5.23;;;3.20;;
13951;SDS011;39535;52.192;9.886;2024-03-23T12:07:41;3.13;;;2.00;;
13951;SDS011;39535;52.192;9.886;2024-03-23T12:10:07;4.07;;;2.50;;
13951;SDS011;39535;52.192;9.886;2024-03-23T12:12:33;4.20;;;2.43;;
13951;SDS011;39535;52.192;9.886;2024-03-23T12:15:03;3.70;;;2.80;;
13951;SDS011;39535;52.192;9.886;2024-03-23T12:17:33;5.50;;;3.03;;
13951;SDS011;39535;52.192;9.886;2024-03-23T12:19:59;3.77;;;2.50;;
13951;SDS011;39535;52.192;9.886;2024-03-23T12:22:25;4.23;;;2.40;;
13951;SDS011;39535;52.192;9.886;2024-03-23T12:24:52;2.80;;;2.50;;
13951;SDS011;39535;52.192;9.886;2024-03-23T12:27:17;3.13;;;2.50;;
13951;SDS011;39535;52.192;9.886;2024-03-23T12:29:44;2.83;;;2.10;;
13951;SDS011;39535;52.192;9.886;2024-03-23T12:32:13;3.30;;;2.47;;
13951;SDS011;39535;52.192;9.886;2024-03-23T12:34:42;5.13;;;2.70;;
13951;SDS011;39535;52.192;9.886;2024-03-23T12:37:07;3.57;;;2.97;;
13951;SDS011;39535;52.192;9.886;2024-03-23T12:39:34;4.87;;;2.40;;
13951;SDS011;39535;52.192;9.886;2024-03-23T12:42:02;2.73;;;2.53;;
13951;SDS011;39535;52.192;9.886;2024-03-23T12:44:30;2.23;;;2.03;;
13951;SDS011;39535;52.192;9.886;2024-03-23T12:46:55;4.07;;;2.60;;
13951;SDS011;39535;52.192;9.886;2024-03-23T12:49:23;4.00;;;3.20;;
13951;SDS011;39535;52.192;9.886;2024-03-23T12:51:53;4.23;;;3.50;;
13951;SDS011;39535;52.192;9.886;2024-03-23T12:54:20;5.03;;;3.00;;
13951;SDS011;39535;52.192;9.886;2024-03-23T12:56:45;2.60;;;2.40;;
13951;SDS011;39535;52.192;9.886;2024-03-23T12:59:12;2.40;;;1.67;;
13951;SDS011;39535;52.192;9.886;2024-03-23T13:01:39;2.27;;;1.70;;
13951;SDS011;39535;52.192;9.886;2024-03-23T13:04:06;3.43;;;1.73;;
13951;SDS011;39535;52.192;9.886;2024-03-23T13:06:32;2.43;;;1.73;;
13951;SDS011;39535;52.192;9.886;2024-03-23T13:08:59;1.47;;;1.13;;
13951;SDS011;39535;52.192;9.886;2024-03-23T13:11:32;1.63;;;1.20;;
13951;SDS011;39535;52.192;9.886;2024-03-23T13:14:15;1.03;;;0.63;;
13951;SDS011;39535;52.192;9.886;2024-03-23T13:16:41;2.80;;;1.20;;
13951;SDS011;39535;52.192;9.886;2024-03-23T13:19:14;1.40;;;1.30;;
13951;SDS011;39535;52.192;9.886;2024-03-23T13:21:44;5.00;;;1.87;;
13951;SDS011;39535;52.192;9.886;2024-03-23T13:24:10;2.87;;;2.30;;
13951;SDS011;39535;52.192;9.886;2024-03-23T13:26:37;2.50;;;1.70;;
13951;SDS011;39535;52.192;9.886;2024-03-23T13:29:05;4.73;;;1.27;;
13951;SDS011;39535;52.192;9.886;2024-03-23T13:31:30;1.73;;;1.20;;
13951;SDS011;39535;52.192;9.886;2024-03-23T13:33:59;1.53;;;1.00;;
13951;SDS011;39535;52.192;9.886;2024-03-23T13:36:24;2.03;;;1.10;;
13951;SDS011;39535;52.192;9.886;2024-03-23T13:38:52;2.97;;;1.30;;
13951;SDS011;39535;52.192;9.886;2024-03-23T13:41:17;2.13;;;1.63;;
13951;SDS011;39535;52.192;9.886;2024-03-23T13:43:44;2.83;;;1.90;;
13951;SDS011;39535;52.192;9.886;2024-03-23T13:46:10;2.67;;;1.97;;
13951;SDS011;39535;52.192;9.886;2024-03-23T13:48:35;2.77;;;1.97;;
13951;SDS011;39535;52.192;9.886;2024-03-23T13:51:02;3.83;;;2.37;;
13951;SDS011;39535;52.192;9.886;2024-03-23T13:53:29;4.70;;;2.77;;
13951;SDS011;39535;52.192;9.886;2024-03-23T13:55:57;4.90;;;3.27;;
13951;SDS011;39535;52.192;9.886;2024-03-23T13:58:22;3.77;;;2.83;;
13951;SDS011;39535;52.192;9.886;2024-03-23T14:00:50;3.40;;;3.20;;
13951;SDS011;39535;52.192;9.886;2024-03-23T14:03:16;3.30;;;3.00;;
13951;SDS011;39535;52.192;9.886;2024-03-23T14:05:43;2.50;;;2.07;;
13951;SDS011;39535;52.192;9.886;2024-03-23T14:08:09;4.60;;;2.83;;
13951;SDS011;39535;52.192;9.886;2024-03-23T14:10:36;2.93;;;2.30;;
13951;SDS011;39535;52.192;9.886;2024-03-23T14:13:07;3.60;;;2.60;;
13951;SDS011;39535;52.192;9.886;2024-03-23T14:15:33;2.87;;;2.30;;
13951;SDS011;39535;52.192;9.886;2024-03-23T14:18:01;4.73;;;2.57;;
13951;SDS011;39535;52.192;9.886;2024-03-23T14:20:27;4.37;;;2.50;;
13951;SDS011;39535;52.192;9.886;2024-03-23T14:22:53;4.27;;;2.47;;
13951;SDS011;39535;52.192;9.886;2024-03-23T14:25:19;5.63;;;2.20;;
13951;SDS011;39535;52.192;9.886;2024-03-23T14:27:48;1.97;;;1.70;;
13951;SDS011;39535;52.192;9.886;2024-03-23T14:30:17;1.50;;;1.33;;
13951;SDS011;39535;52.192;9.886;2024-03-23T14:32:44;4.13;;;1.80;;
13951;SDS011;39535;52.192;9.886;2024-03-23T14:35:11;2.30;;;1.73;;
13951;SDS011;39535;52.192;9.886;2024-03-23T14:37:37;1.30;;;1.20;;
13951;SDS011;39535;52.192;9.886;2024-03-23T14:40:04;1.63;;;1.37;;
13951;SDS011;39535;52.192;9.886;2024-03-23T14:42:32;1.33;;;0.90;;
13951;SDS011;39535;52.192;9.886;2024-03-23T14:45:05;1.50;;;0.60;;
13951;SDS011;39535;52.192;9.886;2024-03-23T14:47:33;1.53;;;1.00;;
13951;SDS011;39535;52.192;9.886;2024-03-23T14:50:00;0.67;;;0.50;;
13951;SDS011;39535;52.192;9.886;2024-03-23T14:52:27;0.77;;;0.77;;
13951;SDS011;39535;52.192;9.886;2024-03-23T14:54:54;0.80;;;0.80;;
13951;SDS011;39535;52.192;9.886;2024-03-23T14:57:25;0.97;;;0.60;;
13951;SDS011;39535;52.192;9.886;2024-03-23T14:59:56;0.40;;;0.40;;
13951;SDS011;39535;52.192;9.886;2024-03-23T15:02:22;2.53;;;0.40;;
13951;SDS011;39535;52.192;9.886;2024-03-23T15:04:50;0.40;;;0.40;;
13951;SDS011;39535;52.192;9.886;2024-03-23T15:07:15;0.93;;;0.50;;
13951;SDS011;39535;52.192;9.886;2024-03-23T15:09:42;0.80;;;0.40;;
13951;SDS011;39535;52.192;9.886;2024-03-23T15:12:07;1.40;;;0.70;;
13951;SDS011;39535;52.192;9.886;2024-03-23T15:14:34;0.70;;;0.70;;
13951;SDS011;39535;52.192;9.886;2024-03-23T15:17:05;0.93;;;0.80;;
13951;SDS011;39535;52.192;9.886;2024-03-23T15:19:32;3.23;;;1.17;;
13951;SDS011;39535;52.192;9.886;2024-03-23T15:22:04;1.77;;;0.63;;
13951;SDS011;39535;52.192;9.886;2024-03-23T15:24:30;1.27;;;0.80;;
13951;SDS011;39535;52.192;9.886;2024-03-23T15:26:59;2.47;;;0.83;;
13951;SDS011;39535;52.192;9.886;2024-03-23T15:29:25;1.57;;;0.70;;
13951;SDS011;39535;52.192;9.886;2024-03-23T15:31:51;2.70;;;1.10;;
13951;SDS011;39535;52.192;9.886;2024-03-23T15:34:20;1.87;;;0.90;;
13951;SDS011;39535;52.192;9.886;2024-03-23T15:36:49;2.63;;;0.90;;
13951;SDS011;39535;52.192;9.886;2024-03-23T15:39:28;1.33;;;0.90;;